sensor_id;sensor_type;location;lat;lon;timestamp;P1;P2;P0
77354;PMS7003;66422;51.202;19.936;2023-12-04T00:05:33;44.25;25.25;20.00
77354;PMS7003;66422;51.202;19.936;2023-12-04T00:20:52;41.00;24.50;14.00
77354;PMS7003;66422;51.202;19.936;2023-12-04T00:36:12;43.00;25.00;16.00
77354;PMS7003;66422;51.202;19.936;2023-12-04T00:51:38;30.50;25.00;20.00
77354;PMS7003;66422;51.202;19.936;2023-12-04T01:06:58;42.50;30.50;17.00
77354;PMS7003;66422;51.202;19.936;2023-12-04T01:22:18;40.50;25.75;17.00
77354;PMS7003;66422;51.202;19.936;2023-12-04T01:37:38;33.50;26.50;23.00
77354;PMS7003;66422;51.202;19.936;2023-12-04T01:52:58;33.00;25.00;15.00
77354;PMS7003;66422;51.202;19.936;2023-12-04T02:08:18;48.00;31.00;22.00
77354;PMS7003;66422;51.202;19.936;2023-12-04T02:23:38;47.00;31.00;21.00
77354;PMS7003;66422;51.202;19.936;2023-12-04T02:38:57;27.00;17.50;11.00
77354;PMS7003;66422;51.202;19.936;2023-12-04T02:54:18;40.00;27.50;16.00
77354;PMS7003;66422;51.202;19.936;2023-12-04T03:09:37;47.67;32.33;20.00
77354;PMS7003;66422;51.202;19.936;2023-12-04T03:24:57;45.00;26.50;18.00
77354;PMS7003;66422;51.202;19.936;2023-12-04T03:40:17;24.50;21.00;13.00
77354;PMS7003;66422;51.202;19.936;2023-12-04T03:55:37;41.67;26.33;16.67
77354;PMS7003;66422;51.202;19.936;2023-12-04T04:10:56;38.50;24.50;18.00
77354;PMS7003;66422;51.202;19.936;2023-12-04T04:26:16;30.50;22.00;14.00
77354;PMS7003;66422;51.202;19.936;2023-12-04T04:41:35;22.00;17.33;11.33
77354;PMS7003;66422;51.202;19.936;2023-12-04T04:56:55;29.75;22.00;13.00
77354;PMS7003;66422;51.202;19.936;2023-12-04T05:12:15;40.00;30.50;19.00
77354;PMS7003;66422;51.202;19.936;2023-12-04T05:27:35;31.50;16.50;13.00
77354;PMS7003;66422;51.202;19.936;2023-12-04T05:42:55;31.00;22.00;15.33
77354;PMS7003;66422;51.202;19.936;2023-12-04T05:58:15;35.67;26.67;17.33
77354;PMS7003;66422;51.202;19.936;2023-12-04T06:13:34;23.33;15.67;11.33
77354;PMS7003;66422;51.202;19.936;2023-12-04T06:28:54;24.00;19.00;13.00
77354;PMS7003;66422;51.202;19.936;2023-12-04T06:44:14;30.00;20.50;12.50
77354;PMS7003;66422;51.202;19.936;2023-12-04T06:59:34;31.50;20.00;15.50
77354;PMS7003;66422;51.202;19.936;2023-12-04T07:14:54;29.00;25.00;18.00
77354;PMS7003;66422;51.202;19.936;2023-12-04T07:30:14;41.33;27.00;18.00
77354;PMS7003;66422;51.202;19.936;2023-12-04T07:45:33;49.00;31.00;21.00
77354;PMS7003;66422;51.202;19.936;2023-12-04T08:00:54;45.00;33.00;19.00
77354;PMS7003;66422;51.202;19.936;2023-12-04T08:16:14;47.75;24.00;8.25
77354;PMS7003;66422;51.202;19.936;2023-12-04T08:31:36;37.50;29.50;20.00
77354;PMS7003;66422;51.202;19.936;2023-12-04T08:46:56;25.50;20.00;12.50
77354;PMS7003;66422;51.202;19.936;2023-12-04T09:02:17;52.50;30.00;21.00
77354;PMS7003;66422;51.202;19.936;2023-12-04T09:17:36;46.00;21.00;13.00
77354;PMS7003;66422;51.202;19.936;2023-12-04T09:32:56;48.33;34.00;22.00
77354;PMS7003;66422;51.202;19.936;2023-12-04T09:48:16;60.00;39.50;27.50
77354;PMS7003;66422;51.202;19.936;2023-12-04T10:03:36;45.00;37.00;25.00
77354;PMS7003;66422;51.202;19.936;2023-12-04T10:18:56;47.00;30.50;22.00
77354;PMS7003;66422;51.202;19.936;2023-12-04T10:34:16;52.50;29.00;19.00
77354;PMS7003;66422;51.202;19.936;2023-12-04T10:49:36;43.00;37.00;24.00
77354;PMS7003;66422;51.202;19.936;2023-12-04T11:20:22;50.00;37.67;23.33
77354;PMS7003;66422;51.202;19.936;2023-12-04T11:35:46;49.00;31.00;19.00
77354;PMS7003;66422;51.202;19.936;2023-12-04T11:51:06;39.00;27.00;18.00
77354;PMS7003;66422;51.202;19.936;2023-12-04T12:06:26;48.75;35.00;22.75
77354;PMS7003;66422;51.202;19.936;2023-12-04T12:21:47;60.00;41.50;25.00
77354;PMS7003;66422;51.202;19.936;2023-12-04T12:37:08;55.50;41.00;30.00
77354;PMS7003;66422;51.202;19.936;2023-12-04T12:52:29;72.00;42.00;25.00
77354;PMS7003;66422;51.202;19.936;2023-12-04T13:07:48;62.50;42.50;27.50
77354;PMS7003;66422;51.202;19.936;2023-12-04T13:23:08;65.33;45.00;28.00
77354;PMS7003;66422;51.202;19.936;2023-12-04T13:38:28;45.00;32.75;23.00
77354;PMS7003;66422;51.202;19.936;2023-12-04T13:53:48;48.75;34.75;21.50
77354;PMS7003;66422;51.202;19.936;2023-12-04T14:09:09;57.00;42.00;27.00
77354;PMS7003;66422;51.202;19.936;2023-12-04T14:24:30;63.50;44.00;30.00
77354;PMS7003;66422;51.202;19.936;2023-12-04T14:39:50;54.50;30.50;19.00
77354;PMS7003;66422;51.202;19.936;2023-12-04T14:55:10;81.00;57.00;34.00
77354;PMS7003;66422;51.202;19.936;2023-12-04T15:10:29;62.50;43.50;29.00
77354;PMS7003;66422;51.202;19.936;2023-12-04T15:26:01;93.00;66.00;40.00
77354;PMS7003;66422;51.202;19.936;2023-12-04T15:41:21;82.00;54.00;33.00
77354;PMS7003;66422;51.202;19.936;2023-12-04T15:56:41;64.50;51.50;33.00
77354;PMS7003;66422;51.202;19.936;2023-12-04T16:12:00;104.00;68.00;39.50
77354;PMS7003;66422;51.202;19.936;2023-12-04T16:27:20;61.50;40.00;18.50
77354;PMS7003;66422;51.202;19.936;2023-12-04T16:42:40;103.50;69.00;42.00
77354;PMS7003;66422;51.202;19.936;2023-12-04T16:58:00;96.00;64.00;40.00
77354;PMS7003;66422;51.202;19.936;2023-12-04T17:13:23;92.00;64.00;41.00
77354;PMS7003;66422;51.202;19.936;2023-12-04T17:28:42;57.67;34.67;27.00
77354;PMS7003;66422;51.202;19.936;2023-12-04T17:44:02;75.00;46.00;30.67
77354;PMS7003;66422;51.202;19.936;2023-12-04T17:59:22;112.67;78.33;48.00
77354;PMS7003;66422;51.202;19.936;2023-12-04T18:14:41;115.50;78.50;46.00
77354;PMS7003;66422;51.202;19.936;2023-12-04T18:30:01;176.50;127.00;67.00
77354;PMS7003;66422;51.202;19.936;2023-12-04T18:45:23;81.50;58.00;36.00
77354;PMS7003;66422;51.202;19.936;2023-12-04T19:00:43;136.00;87.50;50.00
77354;PMS7003;66422;51.202;19.936;2023-12-04T19:16:03;83.50;66.00;43.00
77354;PMS7003;66422;51.202;19.936;2023-12-04T19:31:24;110.50;78.50;49.00
77354;PMS7003;66422;51.202;19.936;2023-12-04T19:46:43;79.00;53.33;34.67
77354;PMS7003;66422;51.202;19.936;2023-12-04T20:02:03;100.00;60.00;20.00
77354;PMS7003;66422;51.202;19.936;2023-12-04T20:17:23;76.33;55.00;35.33
77354;PMS7003;66422;51.202;19.936;2023-12-04T20:32:43;58.50;45.00;29.00
77354;PMS7003;66422;51.202;19.936;2023-12-04T20:48:03;55.00;40.00;26.00
77354;PMS7003;66422;51.202;19.936;2023-12-04T21:03:28;102.33;68.33;39.67
77354;PMS7003;66422;51.202;19.936;2023-12-04T21:18:47;86.50;60.00;39.50
77354;PMS7003;66422;51.202;19.936;2023-12-04T21:34:07;67.00;46.00;27.00
77354;PMS7003;66422;51.202;19.936;2023-12-04T21:49:27;75.00;49.00;31.00
77354;PMS7003;66422;51.202;19.936;2023-12-04T22:04:47;60.00;45.00;33.00
77354;PMS7003;66422;51.202;19.936;2023-12-04T22:20:07;58.50;34.50;22.00
77354;PMS7003;66422;51.202;19.936;2023-12-04T22:35:27;70.33;50.33;32.33
77354;PMS7003;66422;51.202;19.936;2023-12-04T22:50:47;78.50;52.00;34.00
77354;PMS7003;66422;51.202;19.936;2023-12-04T23:06:06;93.50;66.00;43.00
77354;PMS7003;66422;51.202;19.936;2023-12-04T23:21:26;64.67;49.00;32.33
77354;PMS7003;66422;51.202;19.936;2023-12-04T23:36:46;69.50;46.50;28.50
77354;PMS7003;66422;51.202;19.936;2023-12-04T23:52:05;52.00;42.00;28.00
